createdAt,value
2022-11-20T10:59:38.432Z,7.38
2022-11-20T11:02:20.313Z,9.38
2022-11-20T11:04:53.997Z,9.60
2022-11-20T11:07:35.044Z,8.00
2022-11-20T11:10:01.571Z,7.15
2022-11-20T11:12:29.660Z,8.90
2022-11-20T11:14:58.455Z,6.45
2022-11-20T11:17:28.194Z,7.53
2022-11-20T11:20:02.780Z,6.95
2022-11-20T11:22:31.185Z,6.07
2022-11-20T11:24:57.971Z,6.70
2022-11-20T11:27:24.435Z,5.70
2022-11-20T11:29:51.022Z,6.47
2022-11-20T11:32:22.745Z,8.40
2022-11-20T11:35:03.816Z,5.43
2022-11-20T11:37:38.051Z,6.30
2022-11-20T11:42:59.420Z,7.38
2022-11-20T11:45:26.749Z,6.10
2022-11-20T11:47:55.724Z,6.00
2022-11-20T11:50:27.613Z,6.95
2022-11-20T11:53:12.479Z,5.82
2022-11-20T11:55:53.183Z,6.10
2022-11-20T11:58:41.060Z,6.25
2022-11-20T12:01:29.841Z,5.93
2022-11-20T12:04:12.276Z,5.45
2022-11-20T12:06:40.340Z,4.20
2022-11-20T12:09:10.432Z,4.22
2022-11-20T12:11:46.514Z,4.82
2022-11-20T12:14:35.652Z,6.53
2022-11-20T12:17:05.814Z,4.93
2022-11-20T12:19:34.735Z,3.88
2022-11-20T12:22:15.171Z,4.10
2022-11-20T12:25:00.581Z,6.07
2022-11-20T12:27:48.303Z,4.03
2022-11-20T12:32:45.307Z,3.10
2022-11-20T12:35:37.047Z,4.32
2022-11-20T12:38:41.910Z,4.00
2022-11-20T12:41:08.307Z,3.78
2022-11-20T12:44:02.386Z,3.90
2022-11-20T12:49:16.908Z,3.63
2022-11-20T12:51:47.066Z,3.08
2022-11-20T12:54:35.976Z,3.33
2022-11-20T12:57:08.551Z,3.65
2022-11-20T12:59:52.887Z,3.28
2022-11-20T13:02:38.264Z,3.55
2022-11-20T13:05:13.703Z,3.25
2022-11-20T13:07:41.046Z,2.78
2022-11-20T13:10:16.012Z,2.97
2022-11-20T13:12:47.545Z,3.25
2022-11-20T13:15:32.312Z,4.38
2022-11-20T13:18:04.023Z,2.95
2022-11-20T13:20:31.340Z,3.50
2022-11-20T13:22:58.334Z,3.70
2022-11-20T13:25:25.907Z,3.38
2022-11-20T13:27:53.224Z,3.65
2022-11-20T13:30:24.719Z,2.95
2022-11-20T13:33:01.976Z,3.25
2022-11-20T13:35:31.569Z,3.40
2022-11-20T13:38:05.720Z,3.40
2022-11-20T13:40:33.485Z,3.30
2022-11-20T13:43:11.896Z,2.42
2022-11-20T13:45:38.473Z,3.10
2022-11-20T13:48:18.822Z,3.50
2022-11-20T13:51:04.505Z,3.05
2022-11-20T13:53:40.085Z,2.42
2022-11-20T13:56:16.145Z,3.35
2022-11-20T13:59:05.433Z,2.30
2022-11-20T14:01:32.827Z,2.72
2022-11-20T14:04:06.138Z,3.40
2022-11-20T14:06:40.076Z,3.13
2022-11-20T14:09:06.669Z,2.78
2022-11-20T14:11:34.344Z,3.58
2022-11-20T14:14:05.019Z,3.08
2022-11-20T14:16:37.134Z,2.67
2022-11-20T14:19:22.034Z,2.72
2022-11-20T14:21:50.025Z,2.30
2022-11-20T14:24:21.877Z,2.75
2022-11-20T14:26:49.128Z,2.38
2022-11-20T14:29:18.559Z,2.95
2022-11-20T14:31:54.259Z,2.70
2022-11-20T14:34:29.073Z,2.38
2022-11-20T14:37:00.876Z,2.83
2022-11-20T14:39:33.753Z,2.17
2022-11-20T14:42:00.312Z,2.58
2022-11-20T14:44:33.896Z,2.25
2022-11-20T14:47:04.710Z,2.47
2022-11-20T14:49:32.225Z,2.35
2022-11-20T14:52:10.051Z,2.33
2022-11-20T14:54:44.730Z,2.60
2022-11-20T14:57:27.806Z,2.58
2022-11-20T15:00:12.772Z,1.98
2022-11-20T15:02:43.895Z,2.83
2022-11-20T15:05:10.791Z,2.45
2022-11-20T15:07:41.225Z,2.22
2022-11-20T15:10:14.141Z,2.42
2022-11-20T15:12:53.422Z,2.20
2022-11-20T15:15:42.799Z,2.75
2022-11-20T15:18:14.756Z,2.45
2022-11-20T15:20:41.864Z,1.95
2022-11-20T15:23:16.796Z,2.33
2022-11-20T15:25:43.586Z,2.55
2022-11-20T15:28:28.600Z,2.00
2022-11-20T15:30:56.895Z,2.10
2022-11-20T15:33:23.540Z,2.53
2022-11-20T15:35:50.007Z,2.35
2022-11-20T15:38:16.504Z,2.53
2022-11-20T15:40:42.987Z,1.98
2022-11-20T15:43:13.370Z,2.38
2022-11-20T15:45:44.180Z,2.03
2022-11-20T15:48:13.736Z,2.20
2022-11-20T15:51:04.884Z,2.03
2022-11-20T15:53:31.429Z,2.53
2022-11-20T15:55:58.001Z,1.85
2022-11-20T15:58:25.135Z,2.33
2022-11-20T16:00:51.872Z,2.30
2022-11-20T16:03:19.187Z,2.15
2022-11-20T16:05:45.759Z,2.05
2022-11-20T16:08:12.404Z,1.65
2022-11-20T16:10:39.441Z,2.50
2022-11-20T16:13:29.664Z,2.17
2022-11-20T16:15:58.245Z,2.47
2022-11-20T16:18:25.506Z,2.67
2022-11-20T16:20:56.480Z,1.90
2022-11-20T16:23:23.338Z,2.20
2022-11-20T16:25:50.756Z,1.58
2022-11-20T16:28:19.271Z,2.03
2022-11-20T16:30:46.710Z,1.67
2022-11-20T16:33:15.692Z,2.03
2022-11-20T16:35:42.215Z,2.00
2022-11-20T16:38:08.776Z,2.10
2022-11-20T16:40:35.330Z,2.97
2022-11-20T16:43:11.496Z,1.65
2022-11-20T16:45:42.538Z,2.50
2022-11-20T16:48:12.709Z,1.95
2022-11-20T16:50:45.752Z,1.63
2022-11-20T16:53:12.252Z,2.10
2022-11-20T16:55:38.731Z,1.77
2022-11-20T16:58:05.383Z,1.70
2022-11-20T17:00:31.928Z,2.13
2022-11-20T17:02:58.399Z,2.10
2022-11-20T17:05:25.322Z,2.00
2022-11-20T17:07:51.904Z,2.15
2022-11-20T17:10:18.472Z,1.40
2022-11-20T17:12:45.001Z,1.52
2022-11-20T17:15:11.452Z,1.60
2022-11-20T17:17:38.027Z,2.00
2022-11-20T17:20:04.982Z,1.63
2022-11-20T17:22:31.904Z,1.55
2022-11-20T17:24:58.455Z,1.50
2022-11-20T17:27:24.939Z,1.58
2022-11-20T17:29:51.412Z,1.67
2022-11-20T17:32:17.872Z,1.88
2022-11-20T17:34:44.355Z,1.85
2022-11-20T17:37:10.807Z,1.80
2022-11-20T17:39:37.376Z,1.77
2022-11-20T17:42:22.792Z,1.77
2022-11-20T17:44:49.270Z,1.88
2022-11-20T17:47:16.325Z,1.70
2022-11-20T17:49:42.848Z,1.30
2022-11-20T17:52:09.316Z,1.23
2022-11-20T17:54:35.833Z,1.65
2022-11-20T17:57:21.099Z,1.45
2022-11-20T17:59:47.583Z,1.10
2022-11-20T18:02:14.092Z,1.42
2022-11-20T18:04:40.591Z,1.63
2022-11-20T18:07:07.127Z,1.83
2022-11-20T18:09:33.711Z,1.83
2022-11-20T18:12:00.270Z,1.60
2022-11-20T18:14:29.166Z,1.60
2022-11-20T18:16:57.925Z,1.27
2022-11-20T18:19:31.306Z,1.85
2022-11-20T18:22:01.321Z,1.73
2022-11-20T18:24:27.845Z,1.50
2022-11-20T18:26:54.423Z,2.05
2022-11-20T18:29:21.017Z,1.50
2022-11-20T18:31:48.299Z,1.30
2022-11-20T18:34:14.983Z,1.80
2022-11-20T18:36:45.256Z,1.50
2022-11-20T18:39:13.490Z,1.58
2022-11-20T18:41:59.237Z,1.63
2022-11-20T18:44:50.064Z,1.23
2022-11-20T18:47:22.429Z,1.83
2022-11-20T18:49:52.351Z,1.30
2022-11-20T18:52:20.268Z,1.35
2022-11-20T18:54:46.868Z,1.58
2022-11-20T18:57:15.544Z,1.90
2022-11-20T18:59:43.078Z,1.83
2022-11-20T19:02:17.237Z,1.40
2022-11-20T19:04:43.735Z,1.40
2022-11-20T19:07:14.396Z,1.00
2022-11-20T19:09:42.742Z,1.20
2022-11-20T19:14:36.329Z,1.75
2022-11-20T19:17:04.006Z,1.50
2022-11-20T19:19:30.659Z,1.58
2022-11-20T19:21:57.279Z,2.17
2022-11-20T19:24:24.291Z,1.50
2022-11-20T19:26:50.897Z,1.20
2022-11-20T19:29:17.683Z,1.50
2022-11-20T19:31:44.344Z,1.58
2022-11-20T19:34:12.005Z,0.95
2022-11-20T19:36:44.554Z,1.67
2022-11-20T19:39:12.160Z,1.40
2022-11-20T19:41:39.890Z,1.50
2022-11-20T19:44:17.262Z,2.10
2022-11-20T19:46:43.943Z,2.03
2022-11-20T19:49:12.402Z,2.08
2022-11-20T19:51:43.881Z,2.50
2022-11-20T19:54:10.405Z,2.55
2022-11-20T19:56:36.909Z,2.83
2022-11-20T19:59:03.469Z,2.75
2022-11-20T20:01:31.366Z,2.70
2022-11-20T20:04:02.435Z,2.28
2022-11-20T20:06:29.480Z,2.70
2022-11-20T20:08:57.635Z,2.70
2022-11-20T20:11:25.894Z,2.72
2022-11-20T20:13:52.495Z,2.72
2022-11-20T20:16:21.687Z,2.50
2022-11-20T20:18:48.487Z,2.70
2022-11-20T20:21:18.569Z,2.75
2022-11-20T20:23:45.375Z,3.53
2022-11-20T20:26:12.072Z,2.88
2022-11-20T20:28:39.310Z,2.63
2022-11-20T20:31:14.436Z,2.85
2022-11-20T20:33:41.862Z,3.35
2022-11-20T20:36:10.239Z,3.05
2022-11-20T20:41:03.479Z,2.40
2022-11-20T20:43:31.344Z,1.98
2022-11-20T20:45:57.817Z,2.75
2022-11-20T20:48:25.347Z,2.47
2022-11-20T20:50:58.523Z,2.17
2022-11-20T20:53:25.727Z,2.92
2022-11-20T20:56:00.128Z,2.90
2022-11-20T20:58:27.496Z,2.65
2022-11-20T21:00:54.476Z,2.83
2022-11-20T21:03:21.006Z,1.83
2022-11-20T21:05:55.761Z,2.15
2022-11-20T21:10:49.404Z,2.00
2022-11-20T21:13:15.980Z,1.63
2022-11-20T21:15:42.986Z,2.47
2022-11-20T21:18:09.585Z,2.38
2022-11-20T21:20:58.047Z,2.08
2022-11-20T21:23:24.561Z,3.13
2022-11-20T21:25:51.056Z,2.55
2022-11-20T21:28:18.433Z,2.65
2022-11-20T21:30:45.276Z,2.63
2022-11-20T21:33:11.825Z,2.28
2022-11-20T21:35:38.342Z,2.33
2022-11-20T21:38:04.819Z,2.28
2022-11-20T21:40:31.313Z,2.17
2022-11-20T21:42:57.793Z,2.38
2022-11-20T21:45:24.495Z,2.67
2022-11-20T21:47:51.539Z,2.10
2022-11-20T21:50:18.819Z,1.60
2022-11-20T21:52:45.310Z,2.60
2022-11-20T21:55:11.775Z,2.28
2022-11-20T21:57:38.253Z,2.53
2022-11-20T22:00:05.645Z,2.58
2022-11-20T22:02:39.067Z,3.33
2022-11-20T22:05:06.307Z,2.53
2022-11-20T22:07:32.854Z,2.33
2022-11-20T22:09:59.384Z,2.40
2022-11-20T22:12:25.932Z,1.95
2022-11-20T22:14:52.460Z,2.22
2022-11-20T22:17:38.965Z,2.47
2022-11-20T22:20:06.089Z,2.35
2022-11-20T22:22:32.548Z,2.75
2022-11-20T22:24:59.020Z,1.88
2022-11-20T22:27:25.533Z,2.45
2022-11-20T22:29:52.104Z,2.65
2022-11-20T22:32:18.738Z,2.63
2022-11-20T22:34:45.211Z,2.13
2022-11-20T22:37:12.065Z,1.95
2022-11-20T22:39:38.576Z,1.85
2022-11-20T22:42:05.133Z,2.15
2022-11-20T22:44:31.637Z,1.60
2022-11-20T22:46:58.139Z,2.10
2022-11-20T22:49:24.708Z,1.70
2022-11-20T22:51:51.211Z,2.85
2022-11-20T22:54:17.682Z,2.78
2022-11-20T22:56:44.980Z,2.17
2022-11-20T22:59:11.571Z,2.63
2022-11-20T23:01:38.401Z,2.45
2022-11-20T23:04:07.411Z,2.13
2022-11-20T23:06:34.511Z,2.25
2022-11-20T23:09:02.416Z,2.35
2022-11-20T23:11:30.395Z,1.80
2022-11-20T23:14:02.639Z,2.17
2022-11-20T23:16:30.760Z,2.10
2022-11-20T23:19:06.108Z,2.42
2022-11-20T23:21:33.704Z,2.00
2022-11-20T23:24:00.337Z,2.47
2022-11-20T23:26:29.261Z,2.67
2022-11-20T23:28:57.644Z,2.47
2022-11-20T23:33:51.208Z,2.13
2022-11-20T23:36:18.205Z,1.67
2022-11-20T23:38:44.706Z,1.75
2022-11-20T23:41:12.521Z,2.50
2022-11-20T23:43:39.474Z,1.88
2022-11-20T23:46:06.544Z,2.22
2022-11-20T23:48:37.666Z,2.70
2022-11-20T23:51:05.519Z,2.17
2022-11-20T23:53:32.281Z,2.50
2022-11-20T23:56:01.374Z,2.17
2022-11-20T23:58:32.560Z,2.58
